Time,TemperatureF,DewpointF,PressureIn,WindDirection,WindDirectionDegrees,WindSpeedMPH,WindSpeedGustMPH,Humidity,HourlyPrecipIn,Conditions,Clouds,dailyrainin,SoftwareType,DateUTC
2013-08-06 00:04:00,76.8,70.5,30.00,NE,45,0.0,3.0,81,0.00,,,-99.99,meteohub,2013-08-05 22:04:00,
2013-08-06 00:19:00,76.6,67.1,30.00,NE,45,0.0,2.0,72,0.00,,,0.00,meteohub,2013-08-05 22:19:00,
2013-08-06 00:35:00,77.2,67.6,30.01,West,270,2.0,4.0,72,0.00,,,0.00,meteohub,2013-08-05 22:35:00,
2013-08-06 00:50:00,76.6,68.4,30.00,West,270,0.0,0.0,75,0.00,,,0.00,meteohub,2013-08-05 22:50:00,
2013-08-06 01:06:00,76.6,68.2,30.01,West,270,0.0,0.0,75,0.00,,,0.00,meteohub,2013-08-05 23:06:00,
2013-08-06 01:20:00,76.3,68.2,30.00,West,270,0.0,0.0,76,0.00,,,0.00,meteohub,2013-08-05 23:20:00,
2013-08-06 01:36:00,76.5,68.9,30.01,West,270,2.0,3.0,77,0.00,,,0.00,meteohub,2013-08-05 23:36:00,
2013-08-06 01:51:00,77.4,68.0,30.01,WSW,248,4.0,6.0,73,0.00,,,0.00,meteohub,2013-08-05 23:51:00,
2013-08-06 02:07:00,77.4,67.6,30.00,WSW,248,2.0,4.0,72,0.00,,,0.00,meteohub,2013-08-06 00:07:00,
2013-08-06 02:23:00,76.6,67.6,30.00,SW,225,1.0,4.0,74,0.00,,,0.00,meteohub,2013-08-06 00:23:00,
2013-08-06 02:39:00,76.5,68.0,29.98,South,180,0.0,4.0,75,0.00,,,0.00,meteohub,2013-08-06 00:39:00,
2013-08-06 02:54:00,76.3,68.5,29.98,South,180,0.0,2.0,77,0.00,,,0.00,meteohub,2013-08-06 00:54:00,
2013-08-06 03:09:00,75.4,67.6,29.97,South,180,1.0,3.0,77,0.00,,,0.00,meteohub,2013-08-06 01:09:00,
2013-08-06 03:23:00,74.1,66.6,29.96,ENE,68,4.0,5.0,77,0.00,,,0.00,meteohub,2013-08-06 01:23:00,
2013-08-06 03:38:00,74.8,66.0,29.96,SW,225,0.0,5.0,74,0.00,,,0.00,meteohub,2013-08-06 01:38:00,
2013-08-06 03:54:00,75.6,66.4,29.97,SW,225,0.0,3.0,73,0.00,,,0.00,meteohub,2013-08-06 01:54:00,
2013-08-06 04:09:00,75.6,65.5,29.95,SW,225,1.0,3.0,71,0.00,,,0.00,meteohub,2013-08-06 02:09:00,
2013-08-06 04:24:00,75.0,65.8,29.95,SW,225,0.0,1.0,73,0.00,,,0.00,meteohub,2013-08-06 02:24:00,
2013-08-06 04:40:00,75.4,63.9,29.95,SW,225,1.0,3.0,67,0.00,,,0.00,meteohub,2013-08-06 02:40:00,
2013-08-06 04:55:00,75.0,64.2,29.96,SW,225,0.0,1.0,69,0.00,,,0.00,meteohub,2013-08-06 02:55:00,
2013-08-06 05:11:00,73.9,64.4,29.96,SW,225,0.0,1.0,72,0.00,,,0.00,meteohub,2013-08-06 03:11:00,
2013-08-06 05:26:00,72.9,63.9,29.96,SW,225,1.0,2.0,73,0.00,,,0.00,meteohub,2013-08-06 03:26:00,
2013-08-06 05:42:00,72.7,64.2,29.96,SW,225,1.0,2.0,75,0.00,,,0.00,meteohub,2013-08-06 03:42:00,
2013-08-06 05:58:00,72.5,64.0,29.96,SW,225,0.0,1.0,75,0.00,,,0.00,meteohub,2013-08-06 03:58:00,
2013-08-06 06:13:00,72.9,63.7,29.96,SW,225,0.0,1.0,73,0.00,,,0.00,meteohub,2013-08-06 04:13:00,
2013-08-06 06:28:00,72.7,64.0,29.96,SW,225,0.0,2.0,74,0.00,,,0.00,meteohub,2013-08-06 04:28:00,
2013-08-06 06:43:00,72.1,64.2,29.96,SW,225,1.0,3.0,76,0.00,,,0.00,meteohub,2013-08-06 04:43:00,
2013-08-06 06:59:00,70.9,63.0,29.96,SW,225,1.0,3.0,76,0.00,,,0.00,meteohub,2013-08-06 04:59:00,
2013-08-06 07:14:00,72.1,62.6,29.96,NE,45,2.0,3.0,72,0.00,,,0.00,meteohub,2013-08-06 05:14:00,
2013-08-06 07:30:00,73.4,62.2,29.96,NNE,23,1.0,4.0,68,0.00,,,0.00,meteohub,2013-08-06 05:30:00,
2013-08-06 07:46:00,73.9,62.2,29.96,NNE,23,2.0,3.0,67,0.00,,,0.00,meteohub,2013-08-06 05:46:00,
2013-08-06 08:01:00,73.0,63.1,29.96,NE,45,2.0,4.0,71,0.00,,,0.00,meteohub,2013-08-06 06:01:00,
2013-08-06 08:16:00,73.9,62.8,29.96,NE,45,3.0,5.0,68,0.00,,,0.00,meteohub,2013-08-06 06:16:00,
2013-08-06 08:31:00,75.7,61.3,29.96,NE,45,3.0,6.0,61,0.00,,,0.00,meteohub,2013-08-06 06:31:00,
2013-08-06 08:47:00,75.9,64.2,29.96,NE,45,4.0,8.0,67,0.00,,,0.00,meteohub,2013-08-06 06:47:00,
2013-08-06 09:03:00,78.4,67.8,29.97,NNE,23,1.0,4.0,70,0.00,,,0.00,meteohub,2013-08-06 07:03:00,
2013-08-06 09:18:00,80.4,66.7,29.97,NE,45,1.0,5.0,63,0.00,,,0.00,meteohub,2013-08-06 07:18:00,
2013-08-06 09:36:00,81.3,66.9,29.98,North,0,2.0,5.0,61,0.00,,,0.00,meteohub,2013-08-06 07:36:00,
2013-08-06 09:52:00,83.5,66.7,29.97,ENE,68,3.0,7.0,57,0.00,,,0.00,meteohub,2013-08-06 07:52:00,
2013-08-06 10:08:00,83.1,64.0,29.96,NNE,23,4.0,6.0,52,0.00,,,0.00,meteohub,2013-08-06 08:08:00,
2013-08-06 10:23:00,83.7,65.8,29.96,NE,45,4.0,8.0,55,0.00,,,0.00,meteohub,2013-08-06 08:23:00,
2013-08-06 10:39:00,85.3,65.7,29.96,ENE,68,6.0,12.0,52,0.00,,,0.00,meteohub,2013-08-06 08:39:00,
2013-08-06 10:54:00,86.0,65.7,29.96,NE,45,5.0,13.0,51,0.00,,,0.00,meteohub,2013-08-06 08:54:00,
2013-08-06 11:09:00,86.9,64.2,29.96,NNE,23,6.0,11.0,47,0.00,,,0.00,meteohub,2013-08-06 09:09:00,
2013-08-06 11:24:00,86.7,64.9,29.95,NE,45,6.0,10.0,48,0.00,,,0.00,meteohub,2013-08-06 09:24:00,
2013-08-06 11:40:00,89.1,63.9,29.95,NE,45,6.0,12.0,43,0.00,,,0.00,meteohub,2013-08-06 09:40:00,
2013-08-06 11:55:00,90.0,63.7,29.96,NNE,23,4.0,8.0,41,0.00,,,0.00,meteohub,2013-08-06 09:55:00,
2013-08-06 12:10:00,91.9,62.2,29.95,East,90,6.0,10.0,37,0.00,,,0.00,meteohub,2013-08-06 10:10:00,
2013-08-06 12:26:00,92.8,63.1,29.95,ENE,68,2.0,5.0,37,0.00,,,0.00,meteohub,2013-08-06 10:26:00,
2013-08-06 12:41:00,94.3,61.3,29.95,ENE,68,3.0,10.0,33,0.00,,,0.00,meteohub,2013-08-06 10:41:00,
2013-08-06 12:56:00,95.0,57.6,29.95,SSW,203,4.0,8.0,29,0.00,,,0.00,meteohub,2013-08-06 10:56:00,
2013-08-06 13:12:00,91.2,69.3,29.95,SW,225,8.0,13.0,48,0.00,,,0.00,meteohub,2013-08-06 11:12:00,
2013-08-06 13:27:00,90.3,69.4,29.95,SW,225,8.0,12.0,50,0.00,,,0.00,meteohub,2013-08-06 11:27:00,
2013-08-06 13:43:00,88.9,70.3,29.95,SW,225,8.0,14.0,54,0.00,,,0.00,meteohub,2013-08-06 11:43:00,
2013-08-06 13:58:00,88.0,69.6,29.95,WSW,248,8.0,13.0,54,0.00,,,0.00,meteohub,2013-08-06 11:58:00,
2013-08-06 14:14:00,88.5,71.1,29.95,SW,225,10.0,16.0,56,0.00,,,0.00,meteohub,2013-08-06 12:14:00,
2013-08-06 14:29:00,87.4,72.9,29.95,WSW,248,11.0,17.0,62,0.00,,,0.00,meteohub,2013-08-06 12:29:00,
2013-08-06 14:44:00,87.3,72.3,29.94,WSW,248,10.0,16.0,61,0.00,,,0.00,meteohub,2013-08-06 12:44:00,
2013-08-06 15:00:00,86.5,71.6,29.94,WSW,248,11.0,15.0,61,0.00,,,0.00,meteohub,2013-08-06 13:00:00,
2013-08-06 15:15:00,87.3,71.1,29.94,SW,225,9.0,17.0,58,0.00,,,0.00,meteohub,2013-08-06 13:15:00,
2013-08-06 15:30:00,86.7,71.1,29.93,WSW,248,9.0,14.0,59,0.00,,,0.00,meteohub,2013-08-06 13:30:00,
2013-08-06 15:46:00,87.3,72.0,29.93,WSW,248,7.0,12.0,60,0.00,,,0.00,meteohub,2013-08-06 13:46:00,
2013-08-06 16:01:00,88.3,71.1,29.92,WSW,248,8.0,13.0,56,0.00,,,0.00,meteohub,2013-08-06 14:01:00,
2013-08-06 16:16:00,88.7,71.2,29.92,WSW,248,7.0,13.0,56,0.00,,,0.00,meteohub,2013-08-06 14:16:00,
2013-08-06 16:31:00,86.4,72.9,29.91,SW,225,9.0,14.0,64,0.00,,,0.00,meteohub,2013-08-06 14:31:00,
2013-08-06 16:47:00,86.0,72.9,29.91,SW,225,7.0,11.0,65,0.00,,,0.00,meteohub,2013-08-06 14:47:00,
2013-08-06 17:02:00,86.9,73.0,29.91,SW,225,7.0,12.0,63,0.00,,,0.00,meteohub,2013-08-06 15:02:00,
2013-08-06 17:18:00,86.4,73.8,29.91,WSW,248,8.0,13.0,66,0.00,,,0.00,meteohub,2013-08-06 15:18:00,
2013-08-06 17:33:00,85.3,73.8,29.90,WSW,248,7.0,12.0,68,0.00,,,0.00,meteohub,2013-08-06 15:33:00,
2013-08-06 17:49:00,85.6,73.9,29.89,SW,225,6.0,11.0,68,0.00,,,0.00,meteohub,2013-08-06 15:49:00,
2013-08-06 18:04:00,85.5,73.8,29.88,South,180,4.0,9.0,68,0.00,,,0.00,meteohub,2013-08-06 16:04:00,
2013-08-06 18:19:00,86.7,73.9,29.87,SW,225,5.0,7.0,66,0.00,,,0.00,meteohub,2013-08-06 16:19:00,
2013-08-06 18:35:00,86.9,73.9,29.87,SW,225,6.0,10.0,65,0.00,,,0.00,meteohub,2013-08-06 16:35:00,
2013-08-06 18:51:00,85.6,73.6,29.86,SW,225,5.0,9.0,67,0.00,,,0.00,meteohub,2013-08-06 16:51:00,
2013-08-06 19:06:00,85.6,73.8,29.86,WSW,248,5.0,9.0,67,0.00,,,0.00,meteohub,2013-08-06 17:06:00,
2013-08-06 19:22:00,83.5,72.5,29.86,SW,225,6.0,10.0,69,0.00,,,0.00,meteohub,2013-08-06 17:22:00,
2013-08-06 19:37:00,82.9,72.1,29.86,WSW,248,5.0,9.0,70,0.00,,,0.00,meteohub,2013-08-06 17:37:00,
2013-08-06 19:52:00,83.1,72.5,29.86,SW,225,3.0,6.0,70,0.00,,,0.00,meteohub,2013-08-06 17:52:00,
2013-08-06 20:07:00,82.9,72.1,29.86,South,180,2.0,4.0,70,0.00,,,0.00,meteohub,2013-08-06 18:07:00,
2013-08-06 20:23:00,82.8,72.1,29.85,South,180,2.0,5.0,70,0.00,,,0.00,meteohub,2013-08-06 18:23:00,
2013-08-06 20:38:00,82.2,72.0,29.86,SSW,203,2.0,5.0,71,0.00,,,0.00,meteohub,2013-08-06 18:38:00,
2013-08-06 20:54:00,81.0,72.5,29.85,SSW,203,2.0,5.0,75,0.00,,,0.00,meteohub,2013-08-06 18:54:00,
2013-08-06 21:09:00,79.5,72.9,29.86,SW,225,4.0,6.0,80,0.00,,,0.00,meteohub,2013-08-06 19:09:00,
2013-08-06 21:25:00,79.3,73.6,29.86,WSW,248,4.0,7.0,82,0.00,,,0.00,meteohub,2013-08-06 19:25:00,
2013-08-06 21:40:00,78.4,74.1,29.86,WSW,248,6.0,9.0,86,0.00,,,0.00,meteohub,2013-08-06 19:40:00,
2013-08-06 21:55:00,78.1,74.3,29.87,SW,225,5.0,8.0,88,0.00,,,0.00,meteohub,2013-08-06 19:55:00,
2013-08-06 22:10:00,77.7,74.3,29.87,SW,225,4.0,8.0,89,0.00,,,0.00,meteohub,2013-08-06 20:10:00,
2013-08-06 22:26:00,77.7,74.5,29.87,SW,225,3.0,7.0,90,0.00,,,0.00,meteohub,2013-08-06 20:26:00,
2013-08-06 22:41:00,77.7,74.7,29.87,WSW,248,4.0,7.0,90,0.00,,,0.00,meteohub,2013-08-06 20:41:00,
2013-08-06 22:56:00,77.7,74.8,29.87,SSW,203,4.0,6.0,90,0.00,,,0.00,meteohub,2013-08-06 20:56:00,
2013-08-06 23:11:00,77.5,74.3,29.87,SSW,203,4.0,7.0,90,0.00,,,0.00,meteohub,2013-08-06 21:11:00,
2013-08-06 23:27:00,77.4,73.9,29.87,SSW,203,3.0,6.0,89,0.00,,,0.00,meteohub,2013-08-06 21:27:00,
2013-08-06 23:42:00,77.2,73.8,29.87,SSW,203,3.0,6.0,89,0.00,,,0.00,meteohub,2013-08-06 21:42:00,
2013-08-06 23:57:00,76.8,73.4,29.87,South,180,2.0,5.0,89,0.00,,,0.00,meteohub,2013-08-06 21:57:00,